Latest Weather Observations for Temora

IDN60801

Issued at 4:34 pm EDT Saturday 20 December 2014 (issued every 30 minutes, with the page automatically refreshed every 10 minutes)

About weather observations | Map of weather stations | Latest weather observations for NSW | Other Formats
Station Details ID: 073151 Name: TEMORA AIRPORT Lat: -34.43 Lon: 147.51 Height: 280.5 m
Data from the previous 72 hours. | See also: Recent months at Temora
Date/Time
EDT
Temp
°C
App
Temp
°C
Dew
Point
Rel
Hum
%
Delta-T
°C
Wind Press
QNH
hPa
Press
MSL
hPa
Rain
since 9 am
mm
Dir
 
Spd
km/h
Gust
km/h
Spd
kts
Gust
kts
20/04:30pm 30.1 26.3 4.0 19 13.5 SE 13 24 7 13 1013.4 1012.2 0.0
20/04:00pm 29.5 26.0 3.5 19 13.3 S 11 24 6 13 1013.9 1012.8 0.0
20/03:30pm 29.5 25.6 3.5 19 13.3 SSW 13 28 7 15 1014.5 1013.4 0.0
20/03:00pm 28.9 25.1 3.7 20 12.9 SSE 13 20 7 11 1014.9 1013.7 0.0
20/02:30pm 29.0 25.7 4.5 21 12.7 ESE 11 17 6 9 1015.2 1014.0 0.0
20/02:00pm 28.2 24.0 3.8 21 12.5 W 15 24 8 13 1015.5 1014.3 0.0
20/01:30pm 26.8 23.4 4.0 23 11.6 WSW 11 17 6 9 1016.1 1014.9 0.0
20/01:00pm 26.0 23.3 3.9 24 11.1 NE 7 13 4 7 1016.5 1015.3 0.0
20/12:30pm 25.4 22.6 3.4 24 11.0 N 7 11 4 6 1017.0 1015.9 0.0
20/12:00pm 24.6 21.3 2.7 24 10.7 S 9 22 5 12 1017.2 1016.1 0.0
20/11:30am 23.7 20.7 4.1 28 9.8 NNW 9 15 5 8 1017.5 1016.4 0.0
20/11:00am 23.4 20.9 4.9 30 9.3 SE 7 15 4 8 1017.6 1016.5 0.0
20/10:30am 22.4 19.7 5.8 34 8.5 E 9 19 5 10 1017.7 1016.6 0.0
20/10:00am 20.9 18.3 6.1 38 7.5 ENE 9 15 5 8 1017.9 1016.8 0.0
20/09:30am 19.6 17.5 6.7 43 6.6 NE 7 15 4 8 1018.1 1017.0 0.0
20/09:00am 18.9 16.0 8.0 49 5.7 ENE 13 20 7 11 1017.9 1016.8 0.0
20/08:30am 17.8 14.5 8.1 53 5.0 E 15 20 8 11 1017.6 1016.5 0.0
20/08:00am 16.8 13.7 9.0 60 4.1 ESE 15 20 8 11 1017.6 1016.5 0.0
20/07:30am 15.9 13.2 9.1 64 3.5 SE 13 17 7 9 1017.2 1016.1 0.0
20/07:00am 12.5 10.7 7.0 69 2.7 S 6 7 3 4 1016.8 1015.6 0.0
20/06:30am 10.2 7.5 5.6 73 2.1 S 9 11 5 6 1016.5 1015.3 0.0
20/05:30am 8.4 5.9 4.0 74 1.9 SSW 6 7 3 4 1016.6 1015.4 0.0
20/05:00am 8.1 5.4 3.6 73 2.0 SSW 7 9 4 5 1016.3 1015.1 0.0
20/04:30am 7.6 5.0 3.3 74 1.9 SSW 6 7 3 4 1016.0 1014.8 0.0
20/04:00am 8.2 5.5 2.4 67 2.5 SSW 6 7 3 4 1015.9 1014.7 0.0
20/03:30am 9.6 6.9 2.9 63 2.9 SSW 6 7 3 4 1016.0 1014.8 0.0
20/03:00am 11.1 8.4 2.7 56 3.7 S 6 7 3 4 1016.2 1015.0 0.0
20/02:30am 12.0 8.8 3.3 55 3.9 SSE 9 9 5 5 1016.2 1015.0 0.0
20/02:00am 10.0 6.6 2.1 58 3.4 WSW 9 11 5 6 1016.4 1015.2 0.0
20/01:30am 11.8 9.0 2.3 52 4.2 SW 6 7 3 4 1016.8 1015.6 0.0
20/01:00am 14.1 11.3 3.0 47 5.0 S 7 9 4 5 1017.0 1015.9 0.0
20/12:30am 14.6 11.6 2.2 43 5.5 S 7 9 4 5 1017.1 1016.0 0.0
20/12:00am 16.0 12.3 2.1 39 6.3 SSW 11 15 6 8 1017.3 1016.2 0.0
 
Date/Time
EDT
Temp
°C
App
Temp
°C
Dew
Point
Rel
Hum
%
Delta-T
°C
Wind Press
QNH
hPa
Press
MSL
hPa
Rain
since 9 am
mm
Dir
 
Spd
km/h
Gust
km/h
Spd
kts
Gust
kts
19/11:30pm 17.2 12.6 1.6 35 7.1 SSW 15 19 8 10 1017.3 1016.2 0.0
19/11:00pm 18.1 13.9 1.6 33 7.5 SSW 13 19 7 10 1017.3 1016.2 0.0
19/10:30pm 18.3 14.0 1.3 32 7.7 SW 13 17 7 9 1017.1 1016.0 0.0
19/10:00pm 18.5 14.1 0.6 30 8.0 SW 13 17 7 9 1016.7 1015.5 0.0
19/09:30pm 18.7 14.7 0.3 29 8.2 SW 11 17 6 9 1016.3 1015.1 0.0
19/09:00pm 19.7 15.3 0.2 27 8.7 SW 13 17 7 9 1016.1 1014.9 0.0
19/08:30pm 20.6 15.8 -0.1 25 9.3 SW 15 19 8 10 1015.9 1014.7 0.0
19/08:00pm 22.1 16.5 0.0 23 10.1 SW 19 28 10 15 1015.7 1014.5 0.0
19/07:30pm 23.4 17.9 0.5 22 10.7 SW 19 32 10 17 1015.4 1014.2 0.0
19/07:00pm 24.0 17.4 -0.3 20 11.2 WSW 24 37 13 20 1014.9 1013.7 0.0
19/06:30pm 24.4 17.7 -1.4 18 11.7 WSW 24 35 13 19 1014.4 1013.3 0.0
19/06:00pm 24.6 17.4 -2.0 17 11.9 SW 26 37 14 20 1014.1 1013.0 0.0
19/05:33pm 25.1 17.6 -1.6 17 12.1 SW 28 46 15 25 1013.9 1012.8 0.0
19/05:30pm 25.0 17.1 -1.7 17 12.1 WSW 30 46 16 25 1013.9 1012.8 0.0
19/05:14pm 24.9 17.0 -1.8 17 12.0 WSW 30 54 16 29 1013.7 1012.5 0.0
19/05:00pm 25.3 17.7 -2.3 16 12.4 SW 28 41 15 22 1013.9 1012.8 0.0
19/04:30pm 25.3 17.8 -1.5 17 12.2 WSW 28 37 15 20 1013.9 1012.8 0.0
19/04:00pm 25.3 18.5 -1.5 17 12.2 SW 24 37 13 20 1014.1 1013.0 0.0
19/03:30pm 25.6 18.8 -2.1 16 12.5 W 24 33 13 18 1014.2 1013.1 0.0
19/03:00pm 25.4 18.7 -1.4 17 12.2 WSW 24 35 13 19 1014.4 1013.3 0.0
19/02:30pm 24.7 17.5 -2.0 17 12.0 WSW 26 39 14 21 1014.6 1013.5 0.0
19/02:00pm 24.5 17.4 -1.3 18 11.7 WSW 26 39 14 21 1014.6 1013.5 0.0
19/01:30pm 23.6 16.9 -1.3 19 11.2 WSW 24 35 13 19 1014.9 1013.7 0.0
19/01:00pm 24.0 18.2 -0.3 20 11.2 WSW 20 32 11 17 1015.0 1013.8 0.0
19/12:30pm 23.1 16.8 -1.1 20 10.9 WSW 22 32 12 17 1015.2 1014.0 0.0
19/12:00pm 21.9 15.7 -0.1 23 10.0 SW 22 32 12 17 1015.3 1014.1 0.0
19/11:30am 22.0 16.2 2.2 27 9.4 SW 22 44 12 24 1015.4 1014.2 0.0
19/11:00am 20.6 13.9 1.5 28 8.9 SW 26 41 14 22 1015.5 1014.3 0.0
19/10:30am 19.9 13.4 2.7 32 8.1 WSW 26 43 14 23 1015.7 1014.5 0.0
19/10:00am 20.4 14.4 3.2 32 8.2 SW 24 41 13 22 1015.7 1014.5 0.0
19/09:30am 19.1 13.1 3.3 35 7.5 SSW 24 33 13 18 1015.7 1014.5 0.0
19/09:00am 18.3 12.9 4.5 40 6.7 SSW 22 32 12 17 1015.5 1014.3 0.0
19/08:30am 17.5 12.9 5.8 46 5.8 SSW 19 26 10 14 1015.1 1013.9 0.0
19/08:00am 16.3 11.7 6.7 53 4.8 SW 20 28 11 15 1015.0 1013.8 0.0
19/07:30am 14.8 10.5 7.1 60 3.8 SW 19 26 10 14 1014.6 1013.5 0.0
19/07:00am 13.8 11.0 6.9 63 3.4 SW 11 20 6 11 1014.1 1013.0 0.0
19/06:30am 11.8 9.3 6.7 71 2.5 SW 9 11 5 6 1013.5 1012.3 0.0
19/06:00am 11.1 9.8 6.0 71 2.4 SW 2 7 1 4 1013.1 1011.9 0.0
19/05:30am 11.7 9.5 6.0 68 2.7 WSW 7 9 4 5 1013.0 1011.8 0.0
19/05:00am 12.5 10.3 6.3 66 3.0 SW 7 11 4 6 1012.6 1011.4 0.0
19/04:30am 13.1 10.6 6.5 64 3.2 SW 9 13 5 7 1012.3 1011.1 0.0
19/04:00am 14.1 11.2 6.5 60 3.7 SSW 11 15 6 8 1012.0 1010.8 0.0
19/03:30am 14.2 11.3 6.3 59 3.9 SW 11 15 6 8 1011.8 1010.6 0.0
19/03:00am 15.2 11.9 6.2 55 4.4 SW 13 20 7 11 1011.7 1010.5 0.0
19/02:30am 15.9 11.8 6.3 53 4.7 SSW 17 20 9 11 1011.6 1010.4 0.0
19/02:00am 16.3 12.6 6.4 52 4.9 SSW 15 20 8 11 1011.5 1010.3 0.0
19/01:30am 17.4 13.0 6.6 49 5.4 SSW 19 24 10 13 1011.6 1010.4 0.0
19/01:00am 18.2 12.9 6.7 47 5.8 SSW 24 33 13 18 1011.7 1010.5 0.0
19/12:30am 18.8 14.3 6.3 44 6.3 SSW 19 26 10 14 1011.4 1010.2 0.0
19/12:00am 19.2 14.4 5.6 41 6.8 SSW 20 26 11 14 1011.2 1010.0 0.0
 
Date/Time
EDT
Temp
°C
App
Temp
°C
Dew
Point
Rel
Hum
%
Delta-T
°C
Wind Press
QNH
hPa
Press
MSL
hPa
Rain
since 9 am
mm
Dir
 
Spd
km/h
Gust
km/h
Spd
kts
Gust
kts
18/11:30pm 20.5 15.4 4.1 34 8.0 SSW 20 39 11 21 1010.9 1009.8 0.0
18/11:00pm 21.0 16.3 3.2 31 8.6 SW 17 26 9 14 1010.4 1009.2 0.0
18/10:30pm 21.7 17.0 3.4 30 8.9 SW 17 24 9 13 1010.4 1009.2 0.0
18/10:00pm 22.9 16.9 3.4 28 9.6 SW 24 39 13 21 1010.0 1008.8 0.0
18/09:30pm 23.8 17.2 2.0 24 10.5 SW 26 41 14 22 1009.3 1008.1 0.0
18/09:00pm 24.9 18.4 2.4 23 11.0 SW 26 39 14 21 1008.7 1007.5 0.0
18/08:30pm 25.6 19.6 1.0 20 11.7 SW 22 30 12 16 1008.3 1007.1 0.0
18/08:00pm 27.0 20.4 -0.1 17 12.8 WSW 24 41 13 22 1007.8 1006.6 0.0
18/07:30pm 28.2 20.8 -0.9 15 13.7 W 28 41 15 22 1007.4 1006.1 0.0
18/07:00pm 29.0 21.5 -1.2 14 14.2 WSW 28 46 15 25 1007.0 1005.8 0.0
18/06:54pm 29.2 21.8 -1.0 14 14.3 W 28 46 15 25 1007.0 1005.8 0.0
18/06:30pm 29.8 22.7 -1.5 13 14.7 W 26 39 14 21 1006.8 1005.6 0.0
18/06:00pm 29.8 21.8 -2.6 12 15.0 W 30 43 16 23 1006.4 1005.2 0.0
18/05:30pm 30.5 21.7 -4.5 10 15.7 W 33 54 18 29 1006.3 1005.1 0.0
18/05:05pm 30.9 22.1 -4.2 10 15.9 WNW 33 54 18 29 1006.2 1005.0 0.0
18/05:00pm 30.7 22.5 -4.4 10 15.9 WNW 30 46 16 25 1006.2 1005.0 0.0
18/04:50pm 30.3 21.5 -4.7 10 15.6 W 33 50 18 27 1006.4 1005.2 0.0
18/04:45pm 31.1 22.5 -4.1 10 16.0 W 32 50 17 27 1006.3 1005.1 0.0
18/04:30pm 31.1 23.6 -4.1 10 16.0 W 26 43 14 23 1006.5 1005.3 0.0
18/04:22pm 30.8 22.6 -4.3 10 15.9 WNW 30 50 16 27 1006.3 1005.1 0.0
18/04:18pm 31.0 22.2 -4.1 10 15.9 WNW 33 50 18 27 1006.5 1005.3 0.0
18/04:00pm 30.5 23.1 -3.3 11 15.5 W 26 44 14 24 1006.6 1005.4 0.0
18/03:30pm 31.0 23.3 -2.9 11 15.7 WNW 28 48 15 26 1006.6 1005.4 0.0
18/03:00pm 31.0 22.4 -4.1 10 16.0 WSW 32 50 17 27 1006.6 1005.4 0.0
18/02:42pm 30.0 22.2 -3.6 11 15.3 W 28 46 15 25 1006.6 1005.4 0.0
18/02:30pm 30.8 22.9 -4.3 10 15.9 W 28 44 15 24 1006.6 1005.4 0.0
18/02:00pm 30.8 23.2 -1.9 12 15.4 WNW 28 46 15 25 1007.0 1005.8 0.0
18/01:43pm 31.2 23.8 -0.5 13 15.3 W 28 48 15 26 1007.1 1005.9 0.0
18/01:30pm 29.5 23.4 0.2 15 14.2 WSW 22 32 12 17 1007.4 1006.1 0.0
18/01:00pm 29.1 23.5 -0.1 15 14.1 WSW 19 33 10 18 1007.5 1006.2 0.0
18/12:30pm 28.4 22.6 0.2 16 13.5 WNW 20 33 11 18 1007.8 1006.6 0.0
18/12:00pm 27.5 23.1 0.3 17 13.0 NW 13 28 7 15 1008.2 1007.0 0.0
18/11:30am 27.4 22.6 0.2 17 13.0 WNW 15 24 8 13 1008.5 1007.3 0.0
18/11:00am 26.4 21.2 0.2 18 12.4 WSW 17 30 9 16 1008.8 1007.6 0.0
18/10:30am 25.9 20.7 2.6 22 11.5 W 19 32 10 17 1008.8 1007.6 0.0
18/10:00am 23.6 20.7 4.5 29 9.6 N 9 15 5 8 1008.9 1007.7 0.0
18/09:30am 23.0 21.2 7.9 38 8.0 NE 7 15 4 8 1009.1 1007.9 0.0
18/09:00am 21.8 20.4 9.7 46 6.6 ENE 7 13 4 7 1009.1 1007.9 0.0
18/08:30am 20.2 17.9 10.3 53 5.4 ENE 13 19 7 10 1009.1 1007.9 0.0
18/08:00am 18.6 16.0 10.7 60 4.3 E 15 20 8 11 1009.0 1007.8 0.0
18/07:30am 16.8 14.7 11.1 69 3.1 E 13 19 7 10 1009.1 1007.9 0.0
18/07:00am 12.4 12.6 10.5 88 1.0 CALM 0 0 0 0 1009.0 1007.8 0.0
18/06:30am 9.4 8.6 6.7 83 1.3 CALM 0 0 0 0 1009.0 1007.8 0.0
18/06:00am 9.3 8.6 7.1 86 1.1 CALM 0 0 0 0 1008.7 1007.5 0.0
18/05:30am 9.7 9.1 7.3 85 1.2 CALM 0 0 0 0 1008.4 1007.2 0.0
18/05:00am 9.7 8.9 6.6 81 1.5 CALM 0 0 0 0 1007.9 1006.7 0.0
18/04:30am 9.5 8.4 5.1 74 2.0 CALM 0 0 0 0 1007.6 1006.4 0.0
18/04:00am 12.4 11.3 8.3 76 2.1 E 4 7 2 4 1007.4 1006.1 0.0
18/03:30am 12.6 12.0 7.5 71 2.5 CALM 0 0 0 0 1007.5 1006.2 0.0
18/03:00am 14.9 13.4 9.1 68 3.0 ESE 7 13 4 7 1007.4 1006.1 0.0
18/02:30am 15.3 12.8 8.1 62 3.7 E 11 15 6 8 1007.4 1006.1 0.0
18/02:00am 15.9 12.6 6.6 54 4.6 ESE 13 17 7 9 1007.4 1006.1 0.0
18/01:30am 13.2 11.2 2.4 48 4.8 ENE 2 9 1 5 1008.0 1006.8 0.0
18/01:00am 12.0 10.4 2.2 51 4.3 CALM 0 0 0 0 1007.7 1006.5 0.0
18/12:30am 12.7 9.9 2.3 49 4.6 SSW 6 7 3 4 1007.4 1006.1 0.0
18/12:00am 14.3 11.2 0.2 38 6.1 SSE 6 7 3 4 1007.4 1006.1 0.0
 
Date/Time
EDT
Temp
°C
App
Temp
°C
Dew
Point
Rel
Hum
%
Delta-T
°C
Wind Press
QNH
hPa
Press
MSL
hPa
Rain
since 9 am
mm
Dir
 
Spd
km/h
Gust
km/h
Spd
kts
Gust
kts
17/11:30pm 14.6 11.6 0.5 38 6.1 SSW 6 7 3 4 1007.6 1006.4 0.0
17/11:00pm 15.7 12.6 -0.1 34 6.8 SSW 6 7 3 4 1007.7 1006.5 0.0
17/10:30pm 16.0 12.3 0.2 34 6.9 S 9 11 5 6 1007.7 1006.5 0.0
17/10:00pm 17.8 14.0 -0.9 28 8.1 SSW 9 11 5 6 1007.7 1006.5 0.0
17/09:30pm 18.6 15.2 -2.3 24 8.8 SW 6 7 3 4 1007.6 1006.4 0.0
17/09:00pm 20.0 16.5 -1.2 24 9.3 SSW 7 9 4 5 1007.4 1006.1 0.0
17/08:30pm 21.8 17.6 -4.3 17 10.9 WSW 9 11 5 6 1007.0 1005.8 0.0
17/08:00pm 22.9 18.3 -4.2 16 11.5 WSW 11 15 6 8 1006.7 1005.5 0.0
17/07:30pm 24.7 20.0 -5.5 13 12.7 WSW 11 15 6 8 1006.1 1004.9 0.0
17/07:00pm 26.9 22.6 -4.9 12 13.8 WSW 9 15 5 8 1005.9 1004.7 0.0
17/06:30pm 27.5 23.1 -5.6 11 14.2 W 9 15 5 8 1005.9 1004.7 0.0
17/06:00pm 27.2 22.2 -4.6 12 13.9 SW 13 20 7 11 1005.7 1004.5 0.0
17/05:30pm 27.0 22.2 -5.9 11 14.0 WNW 11 19 6 10 1005.7 1004.5 0.0
17/05:00pm 27.6 22.6 -4.3 12 14.1 WNW 13 20 7 11 1005.9 1004.7 0.0

Other Formats:

Comma delimited format used in spreadsheet applications
http://www.bom.gov.au/fwo/IDN60801/IDN60801.95722.axf

JavaScript Object Notation format (JSON) in row-major order
http://www.bom.gov.au/fwo/IDN60801/IDN60801.95722.json